createdAt,value
2017-08-16T00:02:12.564Z,18.70
2017-08-16T00:04:39.972Z,18.70
2017-08-16T00:07:07.393Z,18.70
2017-08-16T00:09:34.806Z,18.80
2017-08-16T00:12:02.219Z,18.70
2017-08-16T00:14:29.631Z,18.60
2017-08-16T00:16:57.041Z,18.60
2017-08-16T00:19:24.455Z,18.50
2017-08-16T00:21:51.874Z,18.60
2017-08-16T00:24:20.092Z,18.40
2017-08-16T00:26:48.609Z,18.40
2017-08-16T00:29:16.028Z,18.40
2017-08-16T00:31:43.494Z,18.40
2017-08-16T00:34:10.920Z,18.30
2017-08-16T00:36:38.358Z,18.30
2017-08-16T00:39:06.538Z,18.20
2017-08-16T00:41:34.058Z,18.10
2017-08-16T00:44:01.482Z,18.10
2017-08-16T00:46:28.890Z,18.10
2017-08-16T00:48:56.301Z,18.00
2017-08-16T00:51:23.706Z,18.00
2017-08-16T00:53:51.119Z,18.00
2017-08-16T00:56:18.958Z,18.10
2017-08-16T00:58:47.287Z,18.00
2017-08-16T01:01:14.694Z,18.00
2017-08-16T01:03:42.109Z,17.90
2017-08-16T01:06:09.521Z,17.90
2017-08-16T01:08:36.946Z,17.90
2017-08-16T01:11:04.361Z,17.90
2017-08-16T01:13:31.782Z,17.90
2017-08-16T01:15:59.194Z,17.90
2017-08-16T01:18:27.123Z,17.90
2017-08-16T01:20:54.526Z,17.90
2017-08-16T01:23:22.718Z,17.80
2017-08-16T01:25:50.126Z,17.80
2017-08-16T01:28:17.530Z,17.80
2017-08-16T01:30:44.959Z,17.80
2017-08-16T01:33:12.370Z,17.80
2017-08-16T01:35:39.786Z,17.80
2017-08-16T01:38:07.193Z,17.90
2017-08-16T01:40:35.333Z,17.90
2017-08-16T01:43:02.742Z,17.90
2017-08-16T01:45:30.164Z,17.90
2017-08-16T01:47:57.567Z,17.90
2017-08-16T01:50:24.978Z,17.80
2017-08-16T01:52:52.390Z,17.70
2017-08-16T01:55:20.578Z,17.60
2017-08-16T01:57:47.988Z,17.60
2017-08-16T02:00:15.394Z,17.50
2017-08-16T02:02:42.809Z,17.40
2017-08-16T02:05:10.239Z,17.30
2017-08-16T02:07:37.662Z,17.20
2017-08-16T02:10:05.066Z,17.20
2017-08-16T02:12:32.493Z,17.30
2017-08-16T02:14:59.897Z,17.30
2017-08-16T02:17:27.311Z,17.20
2017-08-16T02:19:54.724Z,17.20
2017-08-16T02:22:22.906Z,17.10
2017-08-16T02:24:50.315Z,17.10
2017-08-16T02:27:17.734Z,17.00
2017-08-16T02:29:45.558Z,16.90
2017-08-16T02:32:12.972Z,16.80
2017-08-16T02:34:40.385Z,16.80
2017-08-16T02:37:07.797Z,16.70
2017-08-16T02:39:35.210Z,16.80
2017-08-16T02:42:02.627Z,16.80
2017-08-16T02:44:30.039Z,16.80
2017-08-16T02:46:57.459Z,16.70
2017-08-16T02:49:24.874Z,16.70
2017-08-16T02:51:52.278Z,16.70
2017-08-16T02:54:20.462Z,16.70
2017-08-16T02:56:47.870Z,16.70
2017-08-16T02:59:16.299Z,16.80
2017-08-16T03:01:43.710Z,16.80
2017-08-16T03:04:11.143Z,16.80
2017-08-16T03:06:38.547Z,16.80
2017-08-16T03:09:05.962Z,16.70
2017-08-16T03:11:33.379Z,16.60
2017-08-16T03:14:00.791Z,16.70
2017-08-16T03:16:28.198Z,16.80
2017-08-16T03:18:55.618Z,16.80
2017-08-16T03:21:23.021Z,16.90
2017-08-16T03:23:50.434Z,16.90
2017-08-16T03:26:18.666Z,17.00
2017-08-16T03:28:46.958Z,17.00
2017-08-16T03:31:14.606Z,17.10
2017-08-16T03:33:42.010Z,17.20
2017-08-16T03:36:09.430Z,17.20
2017-08-16T03:38:36.843Z,17.20
2017-08-16T03:41:04.254Z,17.10
2017-08-16T03:43:31.662Z,17.10
2017-08-16T03:45:59.070Z,17.00
2017-08-16T03:48:26.479Z,16.90
2017-08-16T03:50:53.889Z,16.80
2017-08-16T03:53:21.408Z,16.80
2017-08-16T03:55:48.805Z,16.80
2017-08-16T03:58:16.977Z,16.90
2017-08-16T04:00:45.167Z,16.90
2017-08-16T04:03:14.413Z,16.90
2017-08-16T04:05:41.807Z,16.90
2017-08-16T04:08:09.216Z,16.90
2017-08-16T04:10:36.626Z,16.90
2017-08-16T04:13:04.034Z,16.60
2017-08-16T04:15:31.470Z,16.50
2017-08-16T04:17:58.948Z,16.50
2017-08-16T04:20:27.177Z,16.70
2017-08-16T04:22:54.595Z,16.80
2017-08-16T04:25:22.001Z,16.90
2017-08-16T04:27:49.419Z,17.00
2017-08-16T04:30:16.945Z,17.00
2017-08-16T04:32:44.370Z,17.00
2017-08-16T04:35:11.781Z,16.90
2017-08-16T04:37:39.211Z,16.90
2017-08-16T04:40:06.617Z,16.90
2017-08-16T04:42:34.034Z,16.90
2017-08-16T04:45:01.485Z,16.90
2017-08-16T04:47:28.898Z,16.90
2017-08-16T04:49:56.302Z,17.00
2017-08-16T04:52:23.722Z,17.10
2017-08-16T04:54:51.134Z,17.20
2017-08-16T04:57:18.560Z,17.20
2017-08-16T04:59:45.971Z,17.20
2017-08-16T05:02:13.375Z,17.10
2017-08-16T05:04:40.792Z,17.10
2017-08-16T05:07:08.969Z,17.30
2017-08-16T05:09:36.390Z,17.20
2017-08-16T05:12:03.801Z,17.40
2017-08-16T05:14:31.228Z,17.60
2017-08-16T05:16:58.634Z,17.70
2017-08-16T05:19:26.047Z,17.80
2017-08-16T05:21:54.218Z,18.10
2017-08-16T05:24:22.397Z,18.10
2017-08-16T05:26:49.805Z,18.10
2017-08-16T05:29:17.217Z,18.20
2017-08-16T05:31:44.629Z,18.20
2017-08-16T05:34:12.052Z,18.20
2017-08-16T05:36:39.453Z,18.30
2017-08-16T05:39:06.878Z,18.30
2017-08-16T05:41:34.306Z,18.30
2017-08-16T05:44:01.721Z,18.40
2017-08-16T05:46:29.133Z,18.60
2017-08-16T05:48:56.541Z,18.80
2017-08-16T05:51:24.718Z,19.10
2017-08-16T05:53:52.901Z,19.20
2017-08-16T05:56:21.077Z,19.30
2017-08-16T05:58:48.506Z,19.20
2017-08-16T06:01:15.932Z,19.30
2017-08-16T06:03:43.345Z,19.30
2017-08-16T06:06:10.795Z,19.30
2017-08-16T06:08:38.970Z,19.20
2017-08-16T06:11:07.818Z,19.30
2017-08-16T06:13:35.245Z,19.20
2017-08-16T06:16:02.661Z,19.40
2017-08-16T06:18:30.842Z,19.80
2017-08-16T06:20:59.031Z,19.90
2017-08-16T06:23:26.462Z,19.80
2017-08-16T06:25:53.882Z,19.90
2017-08-16T06:28:21.306Z,20.00
2017-08-16T06:30:48.729Z,20.10
2017-08-16T06:33:16.145Z,19.90
2017-08-16T06:35:43.565Z,20.00
2017-08-16T06:38:10.984Z,20.10
2017-08-16T06:40:38.397Z,20.20
2017-08-16T06:43:05.810Z,20.30
2017-08-16T06:45:33.238Z,20.50
2017-08-16T06:48:00.656Z,20.70
2017-08-16T06:50:28.090Z,20.90
2017-08-16T06:52:56.273Z,21.20
2017-08-16T06:55:24.453Z,21.40
2017-08-16T06:57:51.878Z,21.40
2017-08-16T07:00:19.298Z,21.40
2017-08-16T07:02:48.285Z,21.20
2017-08-16T07:05:15.710Z,21.30
2017-08-16T07:07:43.129Z,21.40
2017-08-16T07:10:10.541Z,21.30
2017-08-16T07:12:37.965Z,21.50
2017-08-16T07:15:06.151Z,22.10
2017-08-16T07:17:33.573Z,22.00
2017-08-16T07:20:00.995Z,22.60
2017-08-16T07:22:32.291Z,23.10
2017-08-16T07:25:00.270Z,23.30
2017-08-16T07:27:27.690Z,23.10
2017-08-16T07:29:55.803Z,22.70
2017-08-16T07:32:23.996Z,22.40
2017-08-16T07:34:51.424Z,22.40
2017-08-16T07:37:19.632Z,22.30
2017-08-16T07:39:47.041Z,22.30
2017-08-16T07:42:14.467Z,22.00
2017-08-16T07:44:41.892Z,22.00
2017-08-16T07:47:09.309Z,22.00
2017-08-16T07:49:36.741Z,21.90
2017-08-16T07:52:04.163Z,21.90
2017-08-16T07:54:31.585Z,21.90
2017-08-16T07:56:59.002Z,22.10
2017-08-16T07:59:26.428Z,22.20
2017-08-16T08:01:53.846Z,22.40
2017-08-16T08:04:21.273Z,22.50
2017-08-16T08:06:48.687Z,22.80
2017-08-16T08:09:16.110Z,23.50
2017-08-16T08:11:43.531Z,24.70
2017-08-16T08:14:10.991Z,26.10
2017-08-16T08:16:38.406Z,27.10
2017-08-16T08:19:06.609Z,27.30
2017-08-16T08:21:34.573Z,27.30
2017-08-16T08:24:04.013Z,27.40
2017-08-16T08:26:31.450Z,27.30
2017-08-16T08:28:58.866Z,27.50
2017-08-16T08:31:27.186Z,27.70
2017-08-16T08:33:54.599Z,28.60
2017-08-16T08:36:22.821Z,30.10
2017-08-16T08:38:50.205Z,30.00
2017-08-16T08:41:17.639Z,29.70
2017-08-16T08:43:45.692Z,29.70
2017-08-16T08:46:13.109Z,29.70
2017-08-16T08:48:41.290Z,29.70
2017-08-16T08:51:08.705Z,29.60
2017-08-16T08:53:36.118Z,29.90
2017-08-16T08:56:03.529Z,30.60
2017-08-16T08:58:30.941Z,31.20
2017-08-16T09:00:58.357Z,31.30
2017-08-16T09:03:26.537Z,31.30
2017-08-16T09:05:54.717Z,31.50
2017-08-16T09:08:22.153Z,31.50
2017-08-16T09:10:49.570Z,31.50
2017-08-16T09:13:16.999Z,31.80
2017-08-16T09:15:44.414Z,31.10
2017-08-16T09:18:12.196Z,30.80
2017-08-16T09:20:39.586Z,31.20
2017-08-16T09:23:07.002Z,31.50
2017-08-16T09:25:35.306Z,32.00
2017-08-16T09:28:03.860Z,32.20
2017-08-16T09:30:33.475Z,33.00
2017-08-16T09:33:05.633Z,32.80
2017-08-16T09:35:33.809Z,32.70
2017-08-16T09:38:02.010Z,32.70
2017-08-16T09:40:29.417Z,32.70
2017-08-16T09:42:56.844Z,32.40
2017-08-16T09:45:24.261Z,32.70
2017-08-16T09:47:52.449Z,31.90
2017-08-16T09:50:19.882Z,31.90
2017-08-16T09:52:47.283Z,31.70
2017-08-16T09:55:14.710Z,31.50
2017-08-16T09:57:42.130Z,32.00
2017-08-16T10:00:09.537Z,33.10
2017-08-16T10:02:36.969Z,34.00
2017-08-16T10:05:05.161Z,34.90
2017-08-16T10:07:32.562Z,34.90
2017-08-16T10:09:59.998Z,35.40
2017-08-16T10:12:27.404Z,35.90
2017-08-16T10:14:55.691Z,35.70
2017-08-16T10:17:23.878Z,35.70
2017-08-16T10:19:52.054Z,35.80
2017-08-16T10:22:19.467Z,35.80
2017-08-16T10:24:46.945Z,36.30
2017-08-16T10:27:14.357Z,36.90
2017-08-16T10:29:42.289Z,37.40
2017-08-16T10:32:09.703Z,37.60
2017-08-16T10:34:37.133Z,37.60
2017-08-16T10:37:04.542Z,37.00
2017-08-16T10:39:32.723Z,34.20
2017-08-16T10:42:00.146Z,34.10
2017-08-16T10:44:27.565Z,34.20
2017-08-16T10:46:54.986Z,34.30
2017-08-16T10:49:23.716Z,34.30
2017-08-16T10:51:51.142Z,34.30
2017-08-16T10:54:20.091Z,34.40
2017-08-16T10:56:48.484Z,34.40
2017-08-16T10:59:15.903Z,34.10
2017-08-16T11:01:43.326Z,34.10
2017-08-16T11:04:10.744Z,34.50
2017-08-16T11:06:38.183Z,34.80
2017-08-16T11:09:05.594Z,34.90
2017-08-16T11:11:33.002Z,35.00
2017-08-16T11:14:00.438Z,34.60
2017-08-16T11:16:27.847Z,34.20
2017-08-16T11:18:56.034Z,33.30
2017-08-16T11:21:23.437Z,33.20
2017-08-16T11:23:57.027Z,32.80
2017-08-16T11:26:24.476Z,32.60
2017-08-16T11:28:51.878Z,32.50
2017-08-16T11:31:19.297Z,32.70
2017-08-16T11:33:47.256Z,32.70
2017-08-16T11:36:14.666Z,32.40
2017-08-16T11:38:42.858Z,31.20
2017-08-16T11:41:10.270Z,31.10
2017-08-16T11:43:38.318Z,31.00
2017-08-16T11:46:05.718Z,31.20
2017-08-16T11:48:33.902Z,32.10
2017-08-16T11:51:02.978Z,32.60
2017-08-16T11:53:30.419Z,32.50
2017-08-16T11:55:57.834Z,32.80
2017-08-16T11:58:25.255Z,33.30
2017-08-16T12:00:52.673Z,33.90
2017-08-16T12:03:20.104Z,34.20
2017-08-16T12:05:47.522Z,34.30
2017-08-16T12:08:15.702Z,32.60
2017-08-16T12:10:43.886Z,30.90
2017-08-16T12:13:12.063Z,30.10
2017-08-16T12:15:39.483Z,30.00
2017-08-16T12:18:06.908Z,29.80
2017-08-16T12:20:34.330Z,29.40
2017-08-16T12:23:09.514Z,28.50
2017-08-16T12:25:36.930Z,28.40
2017-08-16T12:28:04.355Z,28.70
2017-08-16T12:30:31.768Z,29.40
2017-08-16T12:32:59.184Z,30.10
2017-08-16T12:35:27.362Z,29.70
2017-08-16T12:37:55.746Z,29.10
2017-08-16T12:40:23.157Z,29.10
2017-08-16T12:42:51.126Z,29.00
2017-08-16T12:45:18.548Z,28.20
2017-08-16T12:47:45.961Z,28.30
2017-08-16T12:50:13.394Z,28.60
2017-08-16T12:52:40.790Z,28.30
2017-08-16T12:55:08.205Z,28.40
2017-08-16T12:57:35.625Z,28.20
2017-08-16T13:00:03.034Z,27.50
2017-08-16T13:02:30.457Z,27.60
2017-08-16T13:04:57.865Z,27.10
2017-08-16T13:07:27.638Z,27.00
2017-08-16T13:09:55.052Z,27.00
2017-08-16T13:12:22.470Z,26.80
2017-08-16T13:14:49.880Z,26.60
2017-08-16T13:17:17.308Z,26.50
2017-08-16T13:19:44.725Z,26.30
2017-08-16T13:22:21.795Z,26.10
2017-08-16T13:24:49.214Z,26.60
2017-08-16T13:27:16.625Z,27.10
2017-08-16T13:29:44.049Z,27.00
2017-08-16T13:32:11.464Z,26.70
2017-08-16T13:34:38.878Z,26.40
2017-08-16T13:37:06.301Z,26.50
2017-08-16T13:39:33.714Z,26.60
2017-08-16T13:42:01.133Z,26.70
2017-08-16T13:44:28.563Z,27.00
2017-08-16T13:46:56.048Z,27.10
2017-08-16T13:49:23.458Z,26.70
2017-08-16T13:51:51.639Z,25.90
2017-08-16T13:54:19.830Z,26.10
2017-08-16T13:56:47.245Z,26.10
2017-08-16T13:59:14.663Z,26.40
2017-08-16T14:01:42.077Z,26.70
2017-08-16T14:04:10.276Z,26.40
2017-08-16T14:06:37.690Z,26.40
2017-08-16T14:09:05.645Z,26.60
2017-08-16T14:11:33.057Z,26.70
2017-08-16T14:14:00.481Z,26.80
2017-08-16T14:16:28.679Z,26.90
2017-08-16T14:18:56.082Z,26.90
2017-08-16T14:21:23.506Z,27.00
2017-08-16T14:23:55.526Z,26.90
2017-08-16T14:26:23.702Z,27.50
2017-08-16T14:28:51.878Z,27.00
2017-08-16T14:31:22.158Z,26.70
2017-08-16T14:33:50.098Z,26.70
2017-08-16T14:36:17.513Z,27.00
2017-08-16T14:38:44.926Z,26.40
2017-08-16T14:41:12.337Z,26.40
2017-08-16T14:43:39.755Z,26.50
2017-08-16T14:46:07.170Z,25.90
2017-08-16T14:48:34.573Z,25.80
2017-08-16T14:51:01.990Z,26.10
2017-08-16T14:53:29.405Z,26.80
2017-08-16T14:55:56.818Z,27.10
2017-08-16T14:58:24.221Z,26.70
2017-08-16T15:00:52.193Z,26.40
2017-08-16T15:03:21.266Z,26.40
2017-08-16T15:05:49.486Z,26.40
2017-08-16T15:08:16.898Z,26.10
2017-08-16T15:10:44.315Z,25.80
2017-08-16T15:13:11.714Z,25.50
2017-08-16T15:15:39.136Z,25.40
2017-08-16T15:18:06.538Z,25.30
2017-08-16T15:20:35.095Z,25.20
2017-08-16T15:23:03.890Z,25.20
2017-08-16T15:25:31.306Z,25.30
2017-08-16T15:27:58.717Z,25.30
2017-08-16T15:30:26.130Z,25.60
2017-08-16T15:32:54.061Z,25.50
2017-08-16T15:35:22.690Z,25.20
2017-08-16T15:37:50.077Z,25.10
2017-08-16T15:40:17.490Z,25.20
2017-08-16T15:42:44.901Z,25.20
2017-08-16T15:45:13.081Z,24.90
2017-08-16T15:47:41.610Z,25.00
2017-08-16T15:50:09.022Z,25.00
2017-08-16T15:52:38.396Z,24.70
2017-08-16T15:55:05.819Z,24.50
2017-08-16T15:57:33.238Z,24.40
2017-08-16T16:00:01.418Z,24.40
2017-08-16T16:02:28.838Z,24.40
2017-08-16T16:04:56.249Z,24.30
2017-08-16T16:07:24.589Z,24.30
2017-08-16T16:09:52.006Z,24.30
2017-08-16T16:12:19.414Z,24.40
2017-08-16T16:14:47.610Z,24.40
2017-08-16T16:17:15.021Z,24.40
2017-08-16T16:19:42.441Z,24.40
2017-08-16T16:22:09.842Z,24.40
2017-08-16T16:24:38.026Z,24.60
2017-08-16T16:27:06.247Z,24.50
2017-08-16T16:29:33.679Z,24.50
2017-08-16T16:32:01.851Z,24.20
2017-08-16T16:34:29.269Z,24.10
2017-08-16T16:36:56.680Z,24.10
2017-08-16T16:39:24.094Z,24.00
2017-08-16T16:41:51.499Z,23.80
2017-08-16T16:44:20.517Z,23.70
2017-08-16T16:46:47.934Z,23.40
2017-08-16T16:49:15.350Z,23.40
2017-08-16T16:51:42.774Z,23.20
2017-08-16T16:54:10.178Z,23.30
2017-08-16T16:56:38.361Z,23.10
2017-08-16T16:59:05.775Z,23.10
2017-08-16T17:01:33.186Z,23.00
2017-08-16T17:04:00.602Z,23.00
2017-08-16T17:06:28.019Z,22.90
2017-08-16T17:08:56.111Z,22.80
2017-08-16T17:11:23.530Z,22.80
2017-08-16T17:13:50.930Z,22.70
2017-08-16T17:16:18.345Z,22.70
2017-08-16T17:18:45.757Z,22.80
2017-08-16T17:21:13.953Z,23.00
2017-08-16T17:23:41.372Z,23.00
2017-08-16T17:26:08.766Z,23.10
2017-08-16T17:28:36.946Z,23.10
2017-08-16T17:31:04.358Z,23.10
2017-08-16T17:33:31.781Z,23.00
2017-08-16T17:35:59.877Z,22.80
2017-08-16T17:38:27.289Z,22.70
2017-08-16T17:40:54.698Z,22.60
2017-08-16T17:43:22.114Z,22.60
2017-08-16T17:45:49.526Z,22.60
2017-08-16T17:48:17.710Z,22.30
2017-08-16T17:50:45.882Z,22.20
2017-08-16T17:53:15.738Z,22.10
2017-08-16T17:55:43.142Z,22.10
2017-08-16T17:58:12.587Z,22.10
2017-08-16T18:00:39.990Z,22.10
2017-08-16T18:03:07.712Z,22.00
2017-08-16T18:05:35.124Z,21.80
2017-08-16T18:08:03.334Z,21.40
2017-08-16T18:10:30.738Z,21.40
2017-08-16T18:12:58.155Z,21.40
2017-08-16T18:15:25.573Z,21.40
2017-08-16T18:17:53.745Z,21.40
2017-08-16T18:20:21.681Z,21.40
2017-08-16T18:22:49.094Z,21.30
2017-08-16T18:25:16.520Z,21.10
2017-08-16T18:27:43.931Z,21.00
2017-08-16T18:30:11.348Z,20.90
2017-08-16T18:32:40.050Z,20.70
2017-08-16T18:35:09.494Z,20.60
2017-08-16T18:37:36.910Z,20.60
2017-08-16T18:40:05.216Z,20.60
2017-08-16T18:42:33.514Z,20.50
2017-08-16T18:45:00.937Z,20.40
2017-08-16T18:47:28.349Z,20.30
2017-08-16T18:49:56.537Z,20.00
2017-08-16T18:52:23.938Z,20.00
2017-08-16T18:54:52.365Z,19.90
2017-08-16T18:57:20.434Z,19.80
2017-08-16T18:59:49.457Z,19.60
2017-08-16T19:02:16.870Z,19.60
2017-08-16T19:04:45.046Z,19.40
2017-08-16T19:07:13.230Z,19.30
2017-08-16T19:09:40.646Z,19.30
2017-08-16T19:12:08.188Z,19.20
2017-08-16T19:14:35.595Z,19.10
2017-08-16T19:17:03.765Z,19.00
2017-08-16T19:19:31.974Z,18.90
2017-08-16T19:22:00.835Z,18.90
2017-08-16T19:24:29.005Z,18.90
2017-08-16T19:26:57.208Z,18.90
2017-08-16T19:29:25.366Z,18.70
2017-08-16T19:31:52.790Z,18.70
2017-08-16T19:34:20.201Z,18.70
2017-08-16T19:36:47.619Z,18.60
2017-08-16T19:39:16.314Z,18.50
2017-08-16T19:41:44.962Z,18.30
2017-08-16T19:44:12.339Z,18.30
2017-08-16T19:46:39.878Z,18.20
2017-08-16T19:49:08.017Z,18.10
2017-08-16T19:51:35.430Z,18.10
2017-08-16T19:54:03.629Z,18.10
2017-08-16T19:56:31.030Z,18.00
2017-08-16T19:58:59.697Z,17.90
2017-08-16T20:01:27.099Z,17.90
2017-08-16T20:03:54.526Z,17.70
2017-08-16T20:06:21.942Z,17.60
2017-08-16T20:08:49.362Z,17.60
2017-08-16T20:11:16.779Z,17.70
2017-08-16T20:13:44.187Z,17.70
2017-08-16T20:16:12.371Z,17.70
2017-08-16T20:18:40.549Z,17.60
2017-08-16T20:21:07.970Z,17.60
2017-08-16T20:23:35.621Z,17.60
2017-08-16T20:26:03.050Z,17.60
2017-08-16T20:28:30.458Z,17.50
2017-08-16T20:30:58.004Z,17.30
2017-08-16T20:33:25.410Z,17.20
2017-08-16T20:35:52.846Z,17.20
2017-08-16T20:38:20.254Z,17.40
2017-08-16T20:40:47.792Z,17.50
2017-08-16T20:43:15.198Z,17.60
2017-08-16T20:45:42.618Z,17.60
2017-08-16T20:48:12.755Z,17.50
2017-08-16T20:50:40.608Z,17.40
2017-08-16T20:53:08.026Z,17.30
2017-08-16T20:55:35.509Z,17.20
2017-08-16T20:58:02.917Z,17.20
2017-08-16T21:00:31.089Z,17.30
2017-08-16T21:02:59.282Z,17.30
2017-08-16T21:05:26.694Z,17.30
2017-08-16T21:07:54.119Z,17.30
2017-08-16T21:10:21.534Z,17.20
2017-08-16T21:12:49.728Z,17.40
2017-08-16T21:15:17.143Z,17.40
2017-08-16T21:17:45.238Z,17.40
2017-08-16T21:20:12.650Z,17.40
2017-08-16T21:22:40.066Z,17.40
2017-08-16T21:25:08.064Z,17.30
2017-08-16T21:27:35.473Z,17.30
2017-08-16T21:30:03.653Z,17.00
2017-08-16T21:32:31.842Z,16.90
2017-08-16T21:34:59.258Z,16.90
2017-08-16T21:37:26.675Z,16.90
2017-08-16T21:39:54.086Z,16.90
2017-08-16T21:42:22.273Z,17.20
2017-08-16T21:44:49.694Z,17.20
2017-08-16T21:47:17.102Z,17.30
2017-08-16T21:49:44.524Z,17.40
2017-08-16T21:52:11.918Z,17.30
2017-08-16T21:54:39.341Z,17.10
2017-08-16T21:57:06.754Z,16.90
2017-08-16T21:59:34.423Z,16.90
2017-08-16T22:02:02.322Z,16.80
2017-08-16T22:04:30.505Z,16.70
2017-08-16T22:06:58.702Z,16.70
2017-08-16T22:09:26.106Z,16.60
2017-08-16T22:11:53.518Z,16.60
2017-08-16T22:14:20.942Z,16.50
2017-08-16T22:16:49.510Z,16.70
2017-08-16T22:19:16.924Z,16.70
2017-08-16T22:21:44.342Z,16.60
2017-08-16T22:24:12.517Z,16.30
2017-08-16T22:26:40.698Z,16.30
2017-08-16T22:29:08.114Z,16.30
2017-08-16T22:31:36.351Z,16.30
2017-08-16T22:34:03.762Z,16.30
2017-08-16T22:36:31.689Z,16.20
2017-08-16T22:38:59.505Z,16.00
2017-08-16T22:41:26.925Z,16.00
2017-08-16T22:43:54.345Z,16.10
2017-08-16T22:46:21.765Z,16.00
2017-08-16T22:48:49.181Z,16.20
2017-08-16T22:51:16.602Z,16.10
2017-08-16T22:53:44.018Z,16.00
2017-08-16T22:56:11.433Z,16.00
2017-08-16T22:58:38.845Z,16.10
2017-08-16T23:01:07.040Z,16.20
2017-08-16T23:03:34.450Z,16.20
2017-08-16T23:06:01.866Z,16.20
2017-08-16T23:08:29.282Z,16.20
2017-08-16T23:10:56.699Z,15.90
2017-08-16T23:13:24.802Z,15.80
2017-08-16T23:15:52.217Z,15.80
2017-08-16T23:18:19.629Z,15.80
2017-08-16T23:20:47.049Z,15.90
2017-08-16T23:23:16.133Z,15.90
2017-08-16T23:25:43.552Z,16.00
2017-08-16T23:28:11.739Z,15.70
2017-08-16T23:30:39.141Z,15.70
2017-08-16T23:33:07.550Z,15.70
2017-08-16T23:35:34.966Z,15.90
2017-08-16T23:38:02.391Z,16.10
2017-08-16T23:40:29.797Z,16.20
2017-08-16T23:42:57.885Z,16.40
2017-08-16T23:45:42.361Z,16.50
2017-08-16T23:48:11.039Z,16.50
2017-08-16T23:50:38.438Z,16.40
2017-08-16T23:53:05.841Z,16.30
2017-08-16T23:55:33.266Z,16.40
2017-08-16T23:58:00.678Z,16.40
